createdAt,value
2023-05-07T00:00:06.646Z,47.35
2023-05-07T00:01:06.643Z,50.70
2023-05-07T00:02:06.607Z,44.43
2023-05-07T00:03:06.757Z,44.94
2023-05-07T00:04:06.834Z,46.28
2023-05-07T00:05:06.717Z,46.04
2023-05-07T00:06:06.587Z,41.44
2023-05-07T00:07:06.697Z,41.66
2023-05-07T00:08:06.639Z,46.88
2023-05-07T00:09:06.618Z,49.23
2023-05-07T00:10:06.557Z,45.13
2023-05-07T00:11:06.548Z,46.23
2023-05-07T00:12:06.542Z,50.67
2023-05-07T00:13:06.619Z,48.77
2023-05-07T00:14:06.563Z,47.84
2023-05-07T00:15:06.513Z,49.85
2023-05-07T00:16:06.509Z,50.73
2023-05-07T00:17:06.535Z,52.84
2023-05-07T00:18:06.676Z,49.42
2023-05-07T00:19:06.496Z,42.23
2023-05-07T00:20:06.541Z,48.68
2023-05-07T00:21:06.474Z,49.09
2023-05-07T00:22:07.494Z,54.57
2023-05-07T00:23:06.452Z,47.10
2023-05-07T00:24:06.536Z,48.42
2023-05-07T00:25:06.507Z,43.40
2023-05-07T00:26:06.430Z,41.75
2023-05-07T00:27:06.461Z,49.89
2023-05-07T00:28:06.440Z,52.33
2023-05-07T00:29:06.401Z,47.81
2023-05-07T00:30:06.394Z,48.48
2023-05-07T00:31:06.415Z,46.90
2023-05-07T00:32:06.461Z,50.96
2023-05-07T00:33:06.390Z,52.20
2023-05-07T00:34:06.381Z,49.41
2023-05-07T00:35:06.359Z,41.90
2023-05-07T00:36:06.938Z,43.05
2023-05-07T00:37:06.916Z,42.64
2023-05-07T00:38:07.335Z,45.57
2023-05-07T00:39:06.341Z,45.75
2023-05-07T00:40:06.501Z,46.22
2023-05-07T00:41:06.342Z,48.38
2023-05-07T00:42:06.302Z,51.94
2023-05-07T00:43:06.309Z,50.75
2023-05-07T00:44:06.293Z,42.88
2023-05-07T00:45:06.279Z,47.36
2023-05-07T00:46:06.425Z,55.10
2023-05-07T00:47:06.346Z,59.44
2023-05-07T00:48:06.298Z,54.41
2023-05-07T00:49:06.265Z,49.63
2023-05-07T00:50:06.304Z,48.71
2023-05-07T00:51:06.309Z,53.31
2023-05-07T00:52:06.257Z,49.08
2023-05-07T00:53:06.232Z,48.08
2023-05-07T00:54:06.215Z,42.56
2023-05-07T00:55:06.289Z,41.53
2023-05-07T00:56:06.201Z,41.55
2023-05-07T00:57:06.204Z,43.16
2023-05-07T00:58:06.181Z,49.04
2023-05-07T00:59:06.206Z,49.25
2023-05-07T01:00:06.262Z,47.67
2023-05-07T01:01:06.265Z,43.27
2023-05-07T01:02:06.157Z,44.98
2023-05-07T01:03:06.202Z,42.18
2023-05-07T01:04:06.169Z,48.10
2023-05-07T01:05:06.174Z,45.94
2023-05-07T01:06:06.116Z,48.87
2023-05-07T01:07:06.104Z,44.77
2023-05-07T01:08:06.184Z,48.88
2023-05-07T01:09:06.165Z,48.05
2023-05-07T01:10:06.116Z,48.89
2023-05-07T01:11:06.090Z,52.45
2023-05-07T01:12:07.086Z,48.12
2023-05-07T01:13:06.767Z,50.71
2023-05-07T01:14:06.089Z,43.19
2023-05-07T01:15:06.055Z,47.26
2023-05-07T01:16:06.045Z,45.06
2023-05-07T01:17:06.069Z,43.84
2023-05-07T01:18:06.097Z,49.00
2023-05-07T01:19:06.049Z,44.97
2023-05-07T01:20:06.022Z,44.86
2023-05-07T01:21:06.020Z,46.67
2023-05-07T01:22:05.998Z,50.66
2023-05-07T01:23:06.008Z,48.85
2023-05-07T01:24:06.050Z,47.11
2023-05-07T01:25:05.988Z,46.14
2023-05-07T01:26:05.998Z,52.63
2023-05-07T01:27:05.968Z,43.41
2023-05-07T01:28:06.022Z,44.53
2023-05-07T01:29:05.963Z,46.40
2023-05-07T01:30:05.976Z,46.85
2023-05-07T01:31:05.956Z,45.60
2023-05-07T01:32:05.910Z,41.84
2023-05-07T01:33:05.954Z,56.78
2023-05-07T01:34:05.929Z,49.50
2023-05-07T01:35:05.906Z,45.99
2023-05-07T01:36:05.891Z,41.66
2023-05-07T01:37:05.961Z,48.19
2023-05-07T01:38:05.922Z,44.24
2023-05-07T01:39:05.885Z,49.09
2023-05-07T01:40:05.858Z,55.07
2023-05-07T01:41:05.852Z,50.60
2023-05-07T01:42:05.838Z,47.77
2023-05-07T01:43:05.928Z,42.68
2023-05-07T01:44:06.071Z,45.44
2023-05-07T01:45:05.953Z,53.17
2023-05-07T01:46:05.829Z,52.38
2023-05-07T01:47:05.840Z,44.28
2023-05-07T01:48:05.854Z,52.70
2023-05-07T01:49:05.790Z,46.34
2023-05-07T01:50:05.772Z,48.22
2023-05-07T01:51:05.784Z,43.22
2023-05-07T01:52:05.789Z,49.27
2023-05-07T01:53:05.748Z,53.23
2023-05-07T01:54:05.736Z,42.98
2023-05-07T01:55:05.725Z,47.54
2023-05-07T01:56:05.735Z,44.41
2023-05-07T01:57:05.739Z,49.39
2023-05-07T01:58:05.730Z,48.88
2023-05-07T01:59:05.704Z,46.96
2023-05-07T02:00:05.763Z,42.98
2023-05-07T02:01:05.748Z,53.87
2023-05-07T02:02:05.730Z,42.64
2023-05-07T02:03:05.746Z,53.85
2023-05-07T02:04:05.724Z,44.62
2023-05-07T02:05:05.669Z,45.38
2023-05-07T02:06:05.674Z,46.39
2023-05-07T02:07:05.729Z,44.62
2023-05-07T02:08:05.631Z,44.86
2023-05-07T02:09:05.661Z,50.37
2023-05-07T02:10:05.623Z,50.87
2023-05-07T02:11:05.645Z,49.89
2023-05-07T02:12:05.628Z,46.25
2023-05-07T02:13:05.648Z,44.67
2023-05-07T02:14:05.601Z,45.34
2023-05-07T02:15:05.626Z,46.24
2023-05-07T02:16:05.781Z,48.70
2023-05-07T02:17:05.593Z,52.30
2023-05-07T02:18:05.598Z,49.51
2023-05-07T02:19:05.568Z,42.73
2023-05-07T02:20:05.577Z,54.20
2023-05-07T02:21:05.623Z,50.32
2023-05-07T02:22:05.532Z,43.88
2023-05-07T02:23:05.522Z,46.25
2023-05-07T02:24:05.519Z,42.69
2023-05-07T02:25:05.548Z,43.93
2023-05-07T02:26:05.503Z,45.34
2023-05-07T02:27:05.496Z,41.09
2023-05-07T02:28:05.516Z,46.75
2023-05-07T02:29:05.478Z,58.47
2023-05-07T02:30:05.511Z,48.27
2023-05-07T02:31:05.477Z,47.00
2023-05-07T02:32:05.619Z,42.39
2023-05-07T02:33:05.462Z,61.44
2023-05-07T02:34:05.463Z,48.58
2023-05-07T02:35:05.524Z,47.28
2023-05-07T02:36:05.438Z,42.01
2023-05-07T02:37:05.434Z,47.75
2023-05-07T02:38:05.417Z,49.46
2023-05-07T02:39:05.434Z,48.28
2023-05-07T02:40:05.568Z,63.13
2023-05-07T02:41:06.365Z,44.54
2023-05-07T02:42:05.388Z,48.35
2023-05-07T02:43:05.379Z,43.24
2023-05-07T02:44:05.390Z,43.78
2023-05-07T02:45:05.509Z,45.92
2023-05-07T02:46:05.397Z,50.06
2023-05-07T02:47:05.360Z,43.80
2023-05-07T02:48:05.499Z,48.38
2023-05-07T02:49:05.473Z,47.29
2023-05-07T02:50:05.313Z,52.30
2023-05-07T02:51:05.317Z,52.42
2023-05-07T02:52:05.345Z,45.39
2023-05-07T02:53:05.363Z,45.39
2023-05-07T02:54:05.318Z,46.81
2023-05-07T02:55:05.312Z,49.92
2023-05-07T02:56:05.301Z,48.71
2023-05-07T02:57:06.276Z,48.85
2023-05-07T02:58:06.172Z,48.08
2023-05-07T02:59:05.255Z,48.77
2023-05-07T03:00:05.242Z,52.96
2023-05-07T03:01:06.300Z,52.85
2023-05-07T03:02:05.261Z,50.09
2023-05-07T03:03:05.296Z,51.74
2023-05-07T03:04:05.272Z,51.93
2023-05-07T03:05:05.225Z,52.72
2023-05-07T03:06:05.208Z,52.48
2023-05-07T03:07:05.230Z,52.32
2023-05-07T03:08:05.194Z,51.50
2023-05-07T03:09:05.173Z,52.47
2023-05-07T03:10:05.173Z,54.93
2023-05-07T03:11:05.172Z,53.64
2023-05-07T03:12:05.185Z,51.75
2023-05-07T03:13:05.196Z,54.22
2023-05-07T03:14:05.182Z,52.86
2023-05-07T03:15:05.161Z,57.68
2023-05-07T03:16:05.181Z,56.87
2023-05-07T03:17:05.148Z,53.31
2023-05-07T03:18:05.223Z,49.98
2023-05-07T03:19:05.233Z,53.64
2023-05-07T03:20:05.269Z,53.83
2023-05-07T03:21:05.159Z,52.55
2023-05-07T03:22:05.103Z,55.24
2023-05-07T03:23:05.074Z,52.89
2023-05-07T03:24:05.086Z,53.49
2023-05-07T03:25:05.059Z,52.32
2023-05-07T03:26:05.071Z,54.42
2023-05-07T03:27:05.078Z,51.01
2023-05-07T03:28:05.036Z,55.91
2023-05-07T03:29:05.024Z,56.62
2023-05-07T03:30:05.041Z,53.86
2023-05-07T03:31:05.070Z,51.27
2023-05-07T03:32:05.010Z,52.58
2023-05-07T03:33:05.070Z,54.24
2023-05-07T03:34:04.992Z,53.02
2023-05-07T03:35:05.802Z,54.75
2023-05-07T03:36:05.173Z,50.59
2023-05-07T03:37:04.970Z,55.71
2023-05-07T03:38:04.953Z,51.63
2023-05-07T03:39:04.950Z,53.76
2023-05-07T03:40:05.081Z,52.08
2023-05-07T03:41:04.936Z,52.40
2023-05-07T03:42:04.930Z,52.88
2023-05-07T03:43:04.923Z,52.14
2023-05-07T03:44:04.915Z,61.55
2023-05-07T03:45:04.928Z,53.50
2023-05-07T03:46:04.917Z,51.08
2023-05-07T03:47:05.871Z,53.06
2023-05-07T03:48:04.905Z,56.47
2023-05-07T03:49:04.868Z,52.18
2023-05-07T03:50:04.896Z,52.37
2023-05-07T03:51:04.858Z,62.07
2023-05-07T03:52:04.930Z,54.51
2023-05-07T03:53:04.866Z,48.59
2023-05-07T03:54:04.876Z,49.42
2023-05-07T03:55:04.860Z,54.47
2023-05-07T03:56:04.832Z,48.98
2023-05-07T03:57:04.912Z,53.20
2023-05-07T03:58:04.829Z,56.79
2023-05-07T03:59:04.841Z,53.16
2023-05-07T04:00:04.817Z,53.48
2023-05-07T04:01:04.875Z,63.91
2023-05-07T04:02:05.682Z,55.33
2023-05-07T04:03:04.888Z,55.14
2023-05-07T04:04:04.970Z,50.50
2023-05-07T04:05:04.758Z,54.85
2023-05-07T04:06:04.749Z,60.14
2023-05-07T04:07:05.739Z,50.87
2023-05-07T04:08:04.916Z,52.51
2023-05-07T04:09:04.750Z,53.87
2023-05-07T04:10:04.716Z,53.65
2023-05-07T04:11:04.732Z,49.70
2023-05-07T04:12:04.706Z,52.74
2023-05-07T04:13:05.266Z,50.69
2023-05-07T04:14:04.782Z,53.69
2023-05-07T04:15:04.681Z,54.68
2023-05-07T04:16:04.684Z,51.89
2023-05-07T04:17:04.750Z,54.55
2023-05-07T04:18:04.729Z,52.16
2023-05-07T04:19:04.664Z,52.42
2023-05-07T04:20:04.643Z,48.58
2023-05-07T04:21:04.639Z,47.03
2023-05-07T04:22:05.655Z,54.28
2023-05-07T04:23:04.663Z,51.66
2023-05-07T04:24:04.673Z,55.27
2023-05-07T04:25:04.687Z,59.79
2023-05-07T04:26:04.615Z,55.39
2023-05-07T04:27:04.627Z,54.10
2023-05-07T04:28:04.609Z,55.75
2023-05-07T04:29:04.636Z,57.20
2023-05-07T04:30:04.573Z,53.25
2023-05-07T04:31:04.596Z,54.25
2023-05-07T04:32:04.677Z,50.02
2023-05-07T04:33:04.627Z,52.64
2023-05-07T04:34:04.539Z,52.78
2023-05-07T04:35:04.539Z,49.89
2023-05-07T04:36:04.573Z,50.83
2023-05-07T04:37:04.606Z,53.14
2023-05-07T04:38:04.511Z,55.06
2023-05-07T04:39:04.598Z,55.38
2023-05-07T04:40:04.575Z,63.22
2023-05-07T04:41:04.538Z,57.72
2023-05-07T04:42:04.493Z,52.96
2023-05-07T04:43:04.468Z,53.69
2023-05-07T04:44:04.470Z,53.52
2023-05-07T04:45:04.472Z,52.14
2023-05-07T04:46:04.500Z,49.85
2023-05-07T04:47:04.452Z,55.00
2023-05-07T04:48:04.533Z,50.39
2023-05-07T04:49:04.427Z,51.82
2023-05-07T04:50:04.449Z,47.50
2023-05-07T04:51:04.436Z,52.53
2023-05-07T04:52:04.425Z,53.24
2023-05-07T04:53:04.394Z,50.24
2023-05-07T04:54:04.383Z,51.71
2023-05-07T04:55:04.452Z,54.93
2023-05-07T04:56:04.396Z,51.58
2023-05-07T04:57:04.363Z,47.07
2023-05-07T04:58:04.357Z,61.88
2023-05-07T04:59:04.360Z,51.26
2023-05-07T05:00:04.376Z,47.75
2023-05-07T05:01:04.418Z,51.46
2023-05-07T05:02:04.346Z,63.70
2023-05-07T05:03:04.363Z,53.24
2023-05-07T05:04:04.393Z,49.61
2023-05-07T05:05:04.327Z,49.92
2023-05-07T05:06:04.396Z,47.20
2023-05-07T05:07:04.341Z,49.74
2023-05-07T05:08:04.293Z,48.31
2023-05-07T05:09:04.321Z,46.27
2023-05-07T05:10:04.299Z,47.50
2023-05-07T05:11:04.280Z,51.32
2023-05-07T05:12:04.499Z,57.13
2023-05-07T05:13:04.279Z,51.59
2023-05-07T05:14:04.270Z,54.20
2023-05-07T05:15:04.230Z,53.65
2023-05-07T05:16:04.270Z,53.00
2023-05-07T05:17:04.234Z,53.52
2023-05-07T05:18:04.259Z,54.52
2023-05-07T05:19:04.245Z,59.65
2023-05-07T05:20:04.275Z,50.73
2023-05-07T05:21:04.203Z,52.30
2023-05-07T05:22:04.230Z,54.51
2023-05-07T05:23:04.232Z,51.07
2023-05-07T05:24:04.178Z,48.75
2023-05-07T05:25:04.212Z,52.25
2023-05-07T05:26:04.160Z,53.30
2023-05-07T05:27:04.157Z,47.22
2023-05-07T05:28:04.215Z,46.13
2023-05-07T05:29:04.126Z,51.96
2023-05-07T05:30:04.131Z,50.15
2023-05-07T05:31:04.123Z,56.84
2023-05-07T05:32:04.280Z,51.30
2023-05-07T05:33:04.167Z,55.66
2023-05-07T05:34:04.106Z,58.62
2023-05-07T05:35:04.082Z,56.60
2023-05-07T05:36:04.087Z,55.14
2023-05-07T05:37:04.096Z,51.58
2023-05-07T05:38:04.065Z,56.36
2023-05-07T05:41:14.603Z,52.48
2023-05-07T05:42:14.617Z,49.79
2023-05-07T05:43:14.731Z,52.42
2023-05-07T05:44:14.594Z,53.04
2023-05-07T05:45:14.572Z,53.56
2023-05-07T05:46:14.796Z,54.60
2023-05-07T05:47:14.576Z,47.63
2023-05-07T05:48:14.632Z,45.87
2023-05-07T05:49:14.547Z,50.35
2023-05-07T05:50:14.541Z,51.14
2023-05-07T05:51:14.553Z,45.46
2023-05-07T05:52:15.671Z,54.12
2023-05-07T05:53:15.643Z,52.21
2023-05-07T05:54:15.648Z,51.22
2023-05-07T05:55:15.650Z,59.78
2023-05-07T05:56:15.662Z,57.78
2023-05-07T05:57:15.607Z,52.75
2023-05-07T05:58:15.606Z,51.74
2023-05-07T05:59:15.626Z,57.75
2023-05-07T06:00:15.653Z,56.43
2023-05-07T06:01:15.621Z,54.41
2023-05-07T06:02:15.726Z,54.78
2023-05-07T06:03:15.615Z,53.86
2023-05-07T06:04:15.561Z,50.37
2023-05-07T06:05:15.633Z,52.03
2023-05-07T06:06:15.569Z,55.54
2023-05-07T06:07:15.535Z,52.66
2023-05-07T06:08:15.529Z,53.13
2023-05-07T06:09:15.796Z,57.02
2023-05-07T06:10:16.538Z,54.62
2023-05-07T06:11:15.509Z,53.47
2023-05-07T06:12:15.499Z,56.24
2023-05-07T06:13:15.535Z,56.82
2023-05-07T06:14:15.480Z,55.43
2023-05-07T06:15:15.550Z,59.34
2023-05-07T06:16:15.546Z,55.19
2023-05-07T06:17:15.463Z,50.71
2023-05-07T06:18:16.350Z,56.51
2023-05-07T06:19:15.476Z,60.38
2023-05-07T06:20:15.466Z,56.51
2023-05-07T06:21:15.479Z,58.26
2023-05-07T06:22:15.422Z,57.96
2023-05-07T06:23:17.647Z,59.96
2023-05-07T06:24:16.494Z,56.92
2023-05-07T06:25:15.401Z,62.61
2023-05-07T06:26:15.389Z,58.22
2023-05-07T06:27:15.384Z,58.33
2023-05-07T06:28:15.376Z,58.05
2023-05-07T06:29:15.394Z,59.49
2023-05-07T06:30:15.361Z,60.11
2023-05-07T06:31:15.434Z,57.50
2023-05-07T06:32:15.400Z,58.24
2023-05-07T06:33:15.377Z,55.84
2023-05-07T06:34:15.346Z,57.21
2023-05-07T06:35:15.402Z,57.87
2023-05-07T06:36:15.317Z,58.43
2023-05-07T06:37:15.310Z,57.17
2023-05-07T06:38:15.325Z,56.31
2023-05-07T06:39:16.287Z,58.42
2023-05-07T06:40:15.284Z,55.25
2023-05-07T06:41:15.277Z,57.38
2023-05-07T06:42:15.268Z,56.75
2023-05-07T06:43:15.284Z,62.08
2023-05-07T06:44:15.256Z,57.93
2023-05-07T06:45:15.239Z,59.25
2023-05-07T06:46:15.263Z,58.06
2023-05-07T06:47:16.406Z,58.78
2023-05-07T06:48:16.239Z,57.48
2023-05-07T06:49:15.206Z,56.24
2023-05-07T06:50:15.228Z,57.46
2023-05-07T06:51:15.206Z,54.39
2023-05-07T06:52:15.219Z,57.50
2023-05-07T06:53:15.178Z,58.85
2023-05-07T06:54:15.195Z,57.57
2023-05-07T06:55:15.172Z,53.28
2023-05-07T06:56:15.160Z,60.04
2023-05-07T06:57:15.177Z,56.82
2023-05-07T06:58:15.144Z,55.91
2023-05-07T06:59:15.170Z,61.87
2023-05-07T07:00:15.132Z,59.58
2023-05-07T07:01:15.191Z,54.48
2023-05-07T07:02:16.999Z,55.89
2023-05-07T07:03:15.160Z,58.31
2023-05-07T07:04:15.120Z,52.40
2023-05-07T07:05:15.100Z,52.42
2023-05-07T07:06:15.112Z,53.92
2023-05-07T07:07:15.092Z,57.23
2023-05-07T07:08:15.063Z,52.28
2023-05-07T07:09:15.061Z,56.63
2023-05-07T07:10:15.065Z,54.12
2023-05-07T07:11:15.070Z,53.29
2023-05-07T07:12:15.041Z,55.53
2023-05-07T07:13:15.027Z,58.15
2023-05-07T07:14:15.007Z,56.91
2023-05-07T07:15:15.011Z,55.90
2023-05-07T07:16:15.061Z,55.80
2023-05-07T07:17:14.990Z,56.36
2023-05-07T07:18:14.984Z,57.50
2023-05-07T07:19:15.025Z,55.09
2023-05-07T07:20:15.083Z,56.33
2023-05-07T07:21:14.981Z,60.27
2023-05-07T07:22:14.949Z,55.68
2023-05-07T07:23:14.970Z,53.44
2023-05-07T07:24:14.963Z,53.50
2023-05-07T07:25:14.997Z,53.93
2023-05-07T07:26:14.945Z,54.66
2023-05-07T07:27:14.915Z,56.61
2023-05-07T07:28:14.907Z,57.03
2023-05-07T07:29:14.925Z,54.81
2023-05-07T07:30:14.915Z,59.23
2023-05-07T07:31:14.905Z,55.39
2023-05-07T07:32:14.881Z,51.98
2023-05-07T07:33:14.863Z,54.21
2023-05-07T07:34:14.883Z,57.14
2023-05-07T07:35:15.085Z,55.74
2023-05-07T07:36:14.840Z,58.63
2023-05-07T07:37:14.857Z,60.42
2023-05-07T07:38:14.837Z,58.13
2023-05-07T07:39:14.852Z,55.31
2023-05-07T07:40:14.841Z,54.53
2023-05-07T07:41:15.812Z,53.20
2023-05-07T07:42:14.803Z,57.57
2023-05-07T07:43:14.869Z,59.28
2023-05-07T07:44:15.927Z,56.18
2023-05-07T07:45:15.782Z,59.55
2023-05-07T07:46:14.808Z,55.02
2023-05-07T07:47:14.793Z,58.19
2023-05-07T07:48:14.795Z,62.67
2023-05-07T07:49:14.784Z,59.59
2023-05-07T07:50:21.976Z,60.93
2023-05-07T07:51:16.788Z,56.47
2023-05-07T07:52:14.726Z,55.86
2023-05-07T07:53:14.730Z,59.17
2023-05-07T07:54:14.760Z,58.04
2023-05-07T07:55:14.705Z,57.15
2023-05-07T07:56:14.778Z,55.12
2023-05-07T07:57:14.697Z,57.26
2023-05-07T07:58:14.700Z,57.86
2023-05-07T07:59:14.704Z,56.37
2023-05-07T08:00:14.695Z,55.91
2023-05-07T08:01:14.656Z,55.02
2023-05-07T08:02:14.721Z,58.20
2023-05-07T08:03:14.789Z,58.99
2023-05-07T08:04:14.693Z,63.29
2023-05-07T08:05:14.643Z,63.38
2023-05-07T08:06:15.306Z,62.20
2023-05-07T08:07:15.664Z,61.01
2023-05-07T08:08:14.632Z,58.07
2023-05-07T08:09:14.612Z,55.95
2023-05-07T08:10:14.612Z,54.81
2023-05-07T08:11:14.584Z,59.99
2023-05-07T08:12:14.571Z,57.60
2023-05-07T08:13:14.656Z,57.93
2023-05-07T08:14:14.570Z,57.17
2023-05-07T08:15:14.555Z,57.96
2023-05-07T08:16:14.638Z,56.58
2023-05-07T08:17:14.640Z,60.26
2023-05-07T08:18:14.617Z,57.54
2023-05-07T08:19:14.526Z,53.97
2023-05-07T08:20:14.651Z,57.26
2023-05-07T08:21:14.567Z,58.37
2023-05-07T08:22:14.546Z,57.10
2023-05-07T08:23:14.634Z,57.88
2023-05-07T08:24:14.507Z,58.93
2023-05-07T08:25:14.492Z,63.29
2023-05-07T08:26:14.531Z,59.28
2023-05-07T08:27:14.494Z,61.48
2023-05-07T08:28:14.486Z,56.91
2023-05-07T08:29:14.469Z,53.73
2023-05-07T08:30:14.478Z,56.41
2023-05-07T08:31:14.575Z,58.98
2023-05-07T08:32:14.453Z,53.24
2023-05-07T08:33:14.458Z,55.77
2023-05-07T08:34:14.462Z,61.57
2023-05-07T08:35:14.414Z,61.36
2023-05-07T08:36:14.447Z,56.66
2023-05-07T08:37:14.421Z,55.98
2023-05-07T08:38:14.400Z,53.02
2023-05-07T08:39:14.393Z,53.95
2023-05-07T08:40:14.798Z,57.70
2023-05-07T08:41:15.442Z,65.78
2023-05-07T08:42:14.371Z,58.73
2023-05-07T08:43:15.354Z,58.07
2023-05-07T08:44:14.350Z,57.34
2023-05-07T08:45:15.408Z,56.99
2023-05-07T08:46:15.239Z,57.85
2023-05-07T08:47:14.314Z,60.06
2023-05-07T08:48:14.312Z,63.52
2023-05-07T08:49:14.314Z,57.77
2023-05-07T08:50:14.333Z,58.52
2023-05-07T08:51:14.280Z,56.79
2023-05-07T08:52:14.288Z,58.54
2023-05-07T08:53:14.262Z,56.13
2023-05-07T08:54:14.335Z,57.09
2023-05-07T08:55:15.431Z,55.15
2023-05-07T08:56:14.279Z,58.09
2023-05-07T08:57:14.282Z,54.91
2023-05-07T08:58:14.236Z,62.34
2023-05-07T08:59:14.289Z,58.52
2023-05-07T09:00:14.281Z,54.79
2023-05-07T09:01:14.320Z,56.83
2023-05-07T09:02:14.288Z,62.69
2023-05-07T09:03:14.271Z,57.22
2023-05-07T09:04:14.384Z,58.67
2023-05-07T09:05:14.288Z,57.09
2023-05-07T09:06:14.178Z,57.46
2023-05-07T09:07:14.156Z,58.87
2023-05-07T09:08:14.171Z,58.94
2023-05-07T09:09:14.181Z,57.82
2023-05-07T09:10:14.153Z,55.42
2023-05-07T09:11:14.174Z,59.63
2023-05-07T09:12:14.140Z,58.79
2023-05-07T09:13:14.220Z,57.77
2023-05-07T09:14:14.130Z,55.56
2023-05-07T09:15:14.173Z,55.49
2023-05-07T09:16:14.158Z,58.28
2023-05-07T09:17:14.091Z,60.87
2023-05-07T09:18:16.538Z,56.20
2023-05-07T09:19:14.107Z,60.71
2023-05-07T09:20:14.054Z,61.48
2023-05-07T09:21:15.057Z,56.77
2023-05-07T09:22:14.042Z,57.48
2023-05-07T09:23:14.056Z,59.26
2023-05-07T09:24:14.034Z,57.88
2023-05-07T09:25:14.332Z,59.36
2023-05-07T09:26:14.052Z,57.81
2023-05-07T09:27:14.066Z,59.71
2023-05-07T09:28:14.016Z,60.18
2023-05-07T09:29:13.987Z,60.58
2023-05-07T09:30:14.060Z,60.17
2023-05-07T09:31:14.030Z,64.12
2023-05-07T09:32:14.730Z,60.05
2023-05-07T09:33:13.989Z,57.92
2023-05-07T09:34:13.981Z,60.10
2023-05-07T09:35:13.935Z,57.02
2023-05-07T09:36:13.935Z,59.39
2023-05-07T09:37:13.952Z,59.02
2023-05-07T09:38:13.932Z,60.55
2023-05-07T09:39:13.916Z,59.18
2023-05-07T09:40:13.928Z,61.06
2023-05-07T09:41:13.899Z,58.57
2023-05-07T09:42:13.925Z,61.63
2023-05-07T09:43:13.892Z,62.41
2023-05-07T09:44:13.871Z,59.82
2023-05-07T09:45:13.967Z,57.82
2023-05-07T09:46:14.071Z,57.82
2023-05-07T09:47:14.433Z,56.83
2023-05-07T09:48:13.840Z,56.23
2023-05-07T09:49:13.828Z,62.62
2023-05-07T09:50:13.830Z,57.58
2023-05-07T09:51:14.393Z,59.57
2023-05-07T09:52:14.728Z,60.65
2023-05-07T09:53:13.922Z,57.15
2023-05-07T09:54:13.799Z,56.06
2023-05-07T09:55:13.833Z,59.31
2023-05-07T09:56:13.809Z,55.52
2023-05-07T09:57:13.771Z,56.56
2023-05-07T09:58:13.768Z,58.33
2023-05-07T09:59:13.891Z,61.05
2023-05-07T10:00:13.780Z,57.16
2023-05-07T10:01:13.804Z,57.73
2023-05-07T10:02:13.772Z,60.06
2023-05-07T10:03:13.893Z,59.06
2023-05-07T10:04:13.730Z,55.52
2023-05-07T10:05:13.860Z,56.74
2023-05-07T10:06:13.771Z,56.64
2023-05-07T10:07:13.691Z,58.20
2023-05-07T10:08:13.680Z,56.53
2023-05-07T10:09:13.681Z,58.28
2023-05-07T10:10:13.707Z,59.95
2023-05-07T10:11:13.692Z,57.80
2023-05-07T10:12:13.703Z,58.20
2023-05-07T10:13:13.732Z,61.69
2023-05-07T10:14:13.645Z,58.84
2023-05-07T10:15:13.955Z,59.54
2023-05-07T10:16:13.631Z,56.40
2023-05-07T10:17:13.628Z,54.70
2023-05-07T10:18:13.760Z,59.05
2023-05-07T10:19:13.638Z,56.89
2023-05-07T10:20:13.623Z,58.27
2023-05-07T10:21:13.585Z,56.49
2023-05-07T10:22:13.582Z,58.39
2023-05-07T10:23:13.586Z,60.03
2023-05-07T10:24:13.588Z,55.90
2023-05-07T10:25:13.803Z,59.93
2023-05-07T10:26:13.550Z,56.10
2023-05-07T10:27:13.536Z,59.72
2023-05-07T10:28:13.537Z,56.70
2023-05-07T10:29:13.553Z,61.20
2023-05-07T10:30:13.551Z,58.12
2023-05-07T10:31:13.586Z,55.73
2023-05-07T10:32:13.507Z,57.60
2023-05-07T10:33:13.525Z,58.76
2023-05-07T10:34:13.535Z,58.78
2023-05-07T10:35:13.652Z,61.32
2023-05-07T10:36:13.489Z,57.75
2023-05-07T10:37:13.473Z,60.69
2023-05-07T10:38:13.471Z,58.84
2023-05-07T10:39:13.520Z,63.37
2023-05-07T10:40:13.492Z,62.66
2023-05-07T10:41:13.440Z,59.27
2023-05-07T10:42:13.482Z,59.12
2023-05-07T10:43:13.451Z,60.86
2023-05-07T10:44:13.519Z,66.25
2023-05-07T10:45:13.416Z,58.12
2023-05-07T10:46:13.480Z,59.33
2023-05-07T10:47:13.522Z,58.74
2023-05-07T10:48:27.835Z,59.00
2023-05-07T10:49:15.381Z,61.45
2023-05-07T10:50:13.448Z,58.33
2023-05-07T10:51:13.386Z,58.99
2023-05-07T10:52:13.409Z,63.04
2023-05-07T10:53:13.376Z,59.65
2023-05-07T10:54:13.342Z,57.94
2023-05-07T10:55:13.397Z,59.98
2023-05-07T10:56:13.334Z,63.98
2023-05-07T10:57:13.352Z,56.35
2023-05-07T10:58:20.062Z,58.92
2023-05-07T10:59:15.308Z,56.19
2023-05-07T11:00:13.370Z,61.52
2023-05-07T11:01:13.300Z,62.86
2023-05-07T11:02:13.362Z,57.56
2023-05-07T11:03:13.372Z,57.07
2023-05-07T11:04:13.282Z,57.38
2023-05-07T11:05:13.592Z,56.10
2023-05-07T11:06:13.267Z,56.20
2023-05-07T11:07:13.286Z,57.43
2023-05-07T11:08:13.237Z,59.01
2023-05-07T11:09:13.236Z,59.16
2023-05-07T11:10:13.253Z,57.63
2023-05-07T11:11:13.235Z,58.51
2023-05-07T11:12:13.228Z,57.76
2023-05-07T11:13:13.290Z,52.31
2023-05-07T11:14:13.203Z,56.08
2023-05-07T11:15:13.466Z,57.47
2023-05-07T11:16:13.261Z,56.27
2023-05-07T11:17:13.169Z,56.86
2023-05-07T11:18:13.183Z,57.10
2023-05-07T11:19:13.207Z,58.34
2023-05-07T11:20:13.142Z,57.03
2023-05-07T11:21:13.216Z,55.84
2023-05-07T11:22:13.131Z,55.37
2023-05-07T11:23:13.125Z,54.52
2023-05-07T11:24:13.117Z,56.04
2023-05-07T11:25:13.269Z,59.39
2023-05-07T11:26:13.116Z,56.79
2023-05-07T11:27:13.086Z,56.23
2023-05-07T11:28:13.081Z,59.94
2023-05-07T11:29:13.068Z,54.82
2023-05-07T11:30:13.089Z,57.71
2023-05-07T11:31:13.103Z,54.91
2023-05-07T11:32:13.196Z,56.64
2023-05-07T11:33:13.065Z,58.12
2023-05-07T11:34:13.034Z,59.31
2023-05-07T11:35:13.365Z,58.60
2023-05-07T11:36:13.033Z,57.18
2023-05-07T11:37:13.009Z,58.00
2023-05-07T11:38:13.006Z,56.96
2023-05-07T11:39:13.003Z,55.88
2023-05-07T11:40:44.928Z,60.53
2023-05-07T11:41:12.989Z,56.88
2023-05-07T11:42:12.967Z,59.05
2023-05-07T11:43:12.960Z,61.56
2023-05-07T11:44:12.953Z,56.49
2023-05-07T11:45:13.177Z,59.99
2023-05-07T11:46:12.983Z,57.62
2023-05-07T11:47:12.929Z,56.34
2023-05-07T11:48:13.027Z,56.50
2023-05-07T11:49:12.941Z,59.15
2023-05-07T11:51:00.437Z,57.11
2023-05-07T11:51:13.499Z,59.41
2023-05-07T11:52:12.903Z,58.83
2023-05-07T11:53:13.989Z,59.47
2023-05-07T11:54:13.959Z,58.96
2023-05-07T11:55:13.105Z,56.32
2023-05-07T11:56:12.863Z,56.68
2023-05-07T11:57:12.871Z,60.28
2023-05-07T11:58:12.915Z,58.36
2023-05-07T11:59:12.864Z,62.02
2023-05-07T12:00:12.820Z,57.58
2023-05-07T12:01:12.829Z,58.03
2023-05-07T12:02:12.876Z,57.83
2023-05-07T12:03:13.438Z,61.20
2023-05-07T12:04:12.946Z,62.36
2023-05-07T12:05:13.070Z,59.53
2023-05-07T12:06:12.862Z,60.29
2023-05-07T12:07:12.788Z,59.87
2023-05-07T12:08:12.854Z,59.55
2023-05-07T12:09:12.758Z,56.66
2023-05-07T12:10:12.752Z,62.15
2023-05-07T12:11:12.749Z,57.07
2023-05-07T12:12:12.761Z,56.86
2023-05-07T12:13:12.807Z,58.28
2023-05-07T12:14:12.780Z,56.29
2023-05-07T12:15:12.990Z,58.71
2023-05-07T12:16:12.714Z,57.68
2023-05-07T12:17:12.792Z,57.54
2023-05-07T12:18:12.768Z,60.01
2023-05-07T12:19:15.048Z,57.42
2023-05-07T12:20:13.281Z,57.73
2023-05-07T12:21:12.658Z,61.85
2023-05-07T12:22:12.677Z,60.11
2023-05-07T12:23:12.673Z,60.27
2023-05-07T12:24:12.758Z,56.77
2023-05-07T12:25:12.848Z,59.42
2023-05-07T12:26:12.626Z,66.47
2023-05-07T12:27:12.646Z,59.39
2023-05-07T12:28:12.654Z,56.49
2023-05-07T12:29:12.616Z,61.77
2023-05-07T12:30:12.647Z,59.35
2023-05-07T12:31:12.657Z,57.51
2023-05-07T12:32:12.654Z,63.17
2023-05-07T12:33:12.576Z,58.82
2023-05-07T12:34:12.571Z,58.95
2023-05-07T12:35:12.733Z,61.76
2023-05-07T12:36:12.574Z,59.86
2023-05-07T12:37:12.568Z,60.80
2023-05-07T12:38:12.543Z,59.13
2023-05-07T12:39:12.529Z,59.47
2023-05-07T12:40:12.539Z,56.03
2023-05-07T12:41:12.553Z,57.95
2023-05-07T12:42:12.513Z,57.20
2023-05-07T12:43:12.486Z,59.14
2023-05-07T12:44:12.493Z,59.77
2023-05-07T12:45:12.577Z,58.33
2023-05-07T12:46:12.512Z,59.76
2023-05-07T12:47:12.453Z,64.85
2023-05-07T12:48:12.460Z,58.88
2023-05-07T12:49:12.556Z,59.68
2023-05-07T12:50:12.467Z,60.66
2023-05-07T12:51:12.462Z,61.15
2023-05-07T12:52:12.426Z,58.88
2023-05-07T12:53:13.457Z,59.81
2023-05-07T12:54:12.990Z,60.00